sensor_id;sensor_type;location;lat;lon;timestamp;temperature;humidity
82243;DHT22;71844;51.528;4.442;2023-11-18T00:02:17;6.00;86.80
82243;DHT22;71844;51.528;4.442;2023-11-18T00:04:44;6.00;86.80
82243;DHT22;71844;51.528;4.442;2023-11-18T00:07:11;6.00;86.90
82243;DHT22;71844;51.528;4.442;2023-11-18T00:09:38;6.00;87.00
82243;DHT22;71844;51.528;4.442;2023-11-18T00:12:05;6.00;87.00
82243;DHT22;71844;51.528;4.442;2023-11-18T00:14:32;6.00;87.00
82243;DHT22;71844;51.528;4.442;2023-11-18T00:16:59;5.90;87.00
82243;DHT22;71844;51.528;4.442;2023-11-18T00:19:26;5.90;87.00
82243;DHT22;71844;51.528;4.442;2023-11-18T00:21:53;5.90;87.00
82243;DHT22;71844;51.528;4.442;2023-11-18T00:24:20;5.90;87.00
82243;DHT22;71844;51.528;4.442;2023-11-18T00:26:47;5.90;86.90
82243;DHT22;71844;51.528;4.442;2023-11-18T00:29:14;5.90;86.80
82243;DHT22;71844;51.528;4.442;2023-11-18T00:31:41;5.80;87.00
82243;DHT22;71844;51.528;4.442;2023-11-18T00:34:12;5.80;87.00
82243;DHT22;71844;51.528;4.442;2023-11-18T00:36:45;5.80;87.00
82243;DHT22;71844;51.528;4.442;2023-11-18T00:39:23;5.80;87.20
82243;DHT22;71844;51.528;4.442;2023-11-18T00:41:50;5.80;87.30
82243;DHT22;71844;51.528;4.442;2023-11-18T00:44:20;5.80;87.40
82243;DHT22;71844;51.528;4.442;2023-11-18T00:46:49;5.80;87.50
82243;DHT22;71844;51.528;4.442;2023-11-18T00:49:16;5.80;87.50
82243;DHT22;71844;51.528;4.442;2023-11-18T00:51:48;5.80;87.60
82243;DHT22;71844;51.528;4.442;2023-11-18T00:54:18;5.80;87.60
82243;DHT22;71844;51.528;4.442;2023-11-18T00:56:45;5.80;87.70
82243;DHT22;71844;51.528;4.442;2023-11-18T00:59:14;5.90;87.70
82243;DHT22;71844;51.528;4.442;2023-11-18T01:01:42;5.90;88.10
82243;DHT22;71844;51.528;4.442;2023-11-18T01:04:09;5.90;87.90
82243;DHT22;71844;51.528;4.442;2023-11-18T01:06:42;5.90;87.80
82243;DHT22;71844;51.528;4.442;2023-11-18T01:09:12;5.90;87.70
82243;DHT22;71844;51.528;4.442;2023-11-18T01:11:43;5.90;87.90
82243;DHT22;71844;51.528;4.442;2023-11-18T01:14:40;5.90;87.80
82243;DHT22;71844;51.528;4.442;2023-11-18T01:17:08;5.90;87.80
82243;DHT22;71844;51.528;4.442;2023-11-18T01:19:41;5.90;87.80
82243;DHT22;71844;51.528;4.442;2023-11-18T01:22:13;5.90;87.90
82243;DHT22;71844;51.528;4.442;2023-11-18T01:24:42;5.90;87.80
82243;DHT22;71844;51.528;4.442;2023-11-18T01:27:12;5.90;87.90
82243;DHT22;71844;51.528;4.442;2023-11-18T01:29:43;5.90;87.90
82243;DHT22;71844;51.528;4.442;2023-11-18T01:32:12;5.90;88.00
82243;DHT22;71844;51.528;4.442;2023-11-18T01:34:40;5.90;88.00
82243;DHT22;71844;51.528;4.442;2023-11-18T01:37:10;6.00;87.90
82243;DHT22;71844;51.528;4.442;2023-11-18T01:39:37;5.90;88.00
82243;DHT22;71844;51.528;4.442;2023-11-18T01:42:04;5.90;88.00
82243;DHT22;71844;51.528;4.442;2023-11-18T01:44:31;5.90;87.90
82243;DHT22;71844;51.528;4.442;2023-11-18T01:47:01;5.90;88.00
82243;DHT22;71844;51.528;4.442;2023-11-18T01:49:30;5.90;88.00
82243;DHT22;71844;51.528;4.442;2023-11-18T01:51:57;6.00;88.00
82243;DHT22;71844;51.528;4.442;2023-11-18T01:54:23;6.00;88.00
82243;DHT22;71844;51.528;4.442;2023-11-18T01:56:51;6.00;88.00
82243;DHT22;71844;51.528;4.442;2023-11-18T01:59:19;5.90;88.00
82243;DHT22;71844;51.528;4.442;2023-11-18T02:01:48;5.90;88.00
82243;DHT22;71844;51.528;4.442;2023-11-18T02:04:17;5.90;88.00
82243;DHT22;71844;51.528;4.442;2023-11-18T02:06:48;5.90;88.30
82243;DHT22;71844;51.528;4.442;2023-11-18T02:09:20;5.90;88.10
82243;DHT22;71844;51.528;4.442;2023-11-18T02:12:19;5.90;88.00
82243;DHT22;71844;51.528;4.442;2023-11-18T02:14:50;5.90;88.00
82243;DHT22;71844;51.528;4.442;2023-11-18T02:17:22;5.90;88.00
82243;DHT22;71844;51.528;4.442;2023-11-18T02:19:53;5.90;88.00
82243;DHT22;71844;51.528;4.442;2023-11-18T02:22:22;5.90;88.10
82243;DHT22;71844;51.528;4.442;2023-11-18T02:24:49;5.90;88.20
82243;DHT22;71844;51.528;4.442;2023-11-18T02:27:16;5.90;88.20
82243;DHT22;71844;51.528;4.442;2023-11-18T02:29:47;5.90;88.20
82243;DHT22;71844;51.528;4.442;2023-11-18T02:32:23;5.90;88.10
82243;DHT22;71844;51.528;4.442;2023-11-18T02:35:05;5.90;88.10
82243;DHT22;71844;51.528;4.442;2023-11-18T02:37:42;5.90;88.00
82243;DHT22;71844;51.528;4.442;2023-11-18T02:40:15;5.90;88.00
82243;DHT22;71844;51.528;4.442;2023-11-18T02:42:45;5.90;88.10
82243;DHT22;71844;51.528;4.442;2023-11-18T02:45:16;5.80;88.10
82243;DHT22;71844;51.528;4.442;2023-11-18T02:47:46;5.80;88.00
82243;DHT22;71844;51.528;4.442;2023-11-18T02:50:14;5.80;88.10
82243;DHT22;71844;51.528;4.442;2023-11-18T02:52:42;5.80;88.20
82243;DHT22;71844;51.528;4.442;2023-11-18T02:55:09;5.80;88.30
82243;DHT22;71844;51.528;4.442;2023-11-18T02:57:37;5.80;88.40
82243;DHT22;71844;51.528;4.442;2023-11-18T03:00:05;5.80;88.40
82243;DHT22;71844;51.528;4.442;2023-11-18T03:02:36;5.80;88.50
82243;DHT22;71844;51.528;4.442;2023-11-18T03:05:03;5.80;88.50
82243;DHT22;71844;51.528;4.442;2023-11-18T03:07:30;5.80;88.50
82243;DHT22;71844;51.528;4.442;2023-11-18T03:09:57;5.80;88.40
82243;DHT22;71844;51.528;4.442;2023-11-18T03:12:24;5.80;88.50
82243;DHT22;71844;51.528;4.442;2023-11-18T03:14:54;5.80;88.50
82243;DHT22;71844;51.528;4.442;2023-11-18T03:17:22;5.80;88.50
82243;DHT22;71844;51.528;4.442;2023-11-18T03:19:49;5.80;88.40
82243;DHT22;71844;51.528;4.442;2023-11-18T03:22:17;5.80;88.30
82243;DHT22;71844;51.528;4.442;2023-11-18T03:24:44;5.80;88.20
82243;DHT22;71844;51.528;4.442;2023-11-18T03:27:11;5.80;88.20
82243;DHT22;71844;51.528;4.442;2023-11-18T03:29:37;5.80;88.20
82243;DHT22;71844;51.528;4.442;2023-11-18T03:32:06;5.80;88.20
82243;DHT22;71844;51.528;4.442;2023-11-18T03:34:33;5.80;88.40
82243;DHT22;71844;51.528;4.442;2023-11-18T03:37:00;5.80;88.50
82243;DHT22;71844;51.528;4.442;2023-11-18T03:39:27;5.80;88.60
82243;DHT22;71844;51.528;4.442;2023-11-18T03:41:54;5.80;88.70
82243;DHT22;71844;51.528;4.442;2023-11-18T03:44:23;5.80;88.70
82243;DHT22;71844;51.528;4.442;2023-11-18T03:46:50;5.80;88.70
82243;DHT22;71844;51.528;4.442;2023-11-18T03:49:17;5.80;88.80
82243;DHT22;71844;51.528;4.442;2023-11-18T03:51:46;5.80;88.80
82243;DHT22;71844;51.528;4.442;2023-11-18T03:54:13;5.90;88.80
82243;DHT22;71844;51.528;4.442;2023-11-18T03:56:40;5.80;88.90
82243;DHT22;71844;51.528;4.442;2023-11-18T03:59:07;5.90;88.80
82243;DHT22;71844;51.528;4.442;2023-11-18T04:01:34;5.90;88.80
82243;DHT22;71844;51.528;4.442;2023-11-18T04:04:01;5.80;88.80
82243;DHT22;71844;51.528;4.442;2023-11-18T04:06:28;5.90;88.80
82243;DHT22;71844;51.528;4.442;2023-11-18T04:08:55;5.90;88.80
82243;DHT22;71844;51.528;4.442;2023-11-18T04:11:21;5.90;88.80
82243;DHT22;71844;51.528;4.442;2023-11-18T04:13:48;5.90;88.80
82243;DHT22;71844;51.528;4.442;2023-11-18T04:16:16;5.90;88.80
82243;DHT22;71844;51.528;4.442;2023-11-18T04:18:43;5.90;88.90
82243;DHT22;71844;51.528;4.442;2023-11-18T04:21:11;5.90;88.80
82243;DHT22;71844;51.528;4.442;2023-11-18T04:23:41;5.90;88.80
82243;DHT22;71844;51.528;4.442;2023-11-18T04:26:08;5.90;88.70
82243;DHT22;71844;51.528;4.442;2023-11-18T04:28:36;5.90;88.70
82243;DHT22;71844;51.528;4.442;2023-11-18T04:31:04;5.90;88.70
82243;DHT22;71844;51.528;4.442;2023-11-18T04:33:32;5.90;88.80
82243;DHT22;71844;51.528;4.442;2023-11-18T04:36:00;5.90;88.90
82243;DHT22;71844;51.528;4.442;2023-11-18T04:38:27;5.90;88.90
82243;DHT22;71844;51.528;4.442;2023-11-18T04:40:54;5.90;88.90
82243;DHT22;71844;51.528;4.442;2023-11-18T04:46:06;5.90;89.00
82243;DHT22;71844;51.528;4.442;2023-11-18T04:48:34;6.00;89.00
82243;DHT22;71844;51.528;4.442;2023-11-18T04:51:07;6.00;88.90
82243;DHT22;71844;51.528;4.442;2023-11-18T04:53:33;6.00;88.90
82243;DHT22;71844;51.528;4.442;2023-11-18T04:56:01;6.00;88.90
82243;DHT22;71844;51.528;4.442;2023-11-18T04:58:28;6.00;88.90
82243;DHT22;71844;51.528;4.442;2023-11-18T05:00:55;6.00;88.90
82243;DHT22;71844;51.528;4.442;2023-11-18T05:03:21;6.00;88.90
82243;DHT22;71844;51.528;4.442;2023-11-18T05:05:51;6.00;88.80
82243;DHT22;71844;51.528;4.442;2023-11-18T05:08:22;6.00;88.90
82243;DHT22;71844;51.528;4.442;2023-11-18T05:10:49;6.00;88.90
82243;DHT22;71844;51.528;4.442;2023-11-18T05:13:17;6.00;88.80
82243;DHT22;71844;51.528;4.442;2023-11-18T05:15:46;6.10;88.80
82243;DHT22;71844;51.528;4.442;2023-11-18T05:18:14;6.10;88.80
82243;DHT22;71844;51.528;4.442;2023-11-18T05:20:43;6.10;88.90
82243;DHT22;71844;51.528;4.442;2023-11-18T05:23:11;6.10;88.80
82243;DHT22;71844;51.528;4.442;2023-11-18T05:25:44;6.10;88.80
82243;DHT22;71844;51.528;4.442;2023-11-18T05:28:11;6.10;88.80
82243;DHT22;71844;51.528;4.442;2023-11-18T05:30:41;6.10;88.80
82243;DHT22;71844;51.528;4.442;2023-11-18T05:33:09;6.10;88.80
82243;DHT22;71844;51.528;4.442;2023-11-18T05:35:41;6.10;88.80
82243;DHT22;71844;51.528;4.442;2023-11-18T05:38:20;6.10;88.70
82243;DHT22;71844;51.528;4.442;2023-11-18T05:40:49;6.20;88.70
82243;DHT22;71844;51.528;4.442;2023-11-18T05:43:29;6.20;88.80
82243;DHT22;71844;51.528;4.442;2023-11-18T05:46:03;6.20;88.70
82243;DHT22;71844;51.528;4.442;2023-11-18T05:48:49;6.20;88.60
82243;DHT22;71844;51.528;4.442;2023-11-18T05:51:20;6.20;88.60
82243;DHT22;71844;51.528;4.442;2023-11-18T05:53:48;6.20;88.60
82243;DHT22;71844;51.528;4.442;2023-11-18T05:56:15;6.20;88.60
82243;DHT22;71844;51.528;4.442;2023-11-18T05:58:45;6.20;88.60
82243;DHT22;71844;51.528;4.442;2023-11-18T06:01:12;6.20;88.50
82243;DHT22;71844;51.528;4.442;2023-11-18T06:03:41;6.20;88.50
82243;DHT22;71844;51.528;4.442;2023-11-18T06:06:09;6.20;88.40
82243;DHT22;71844;51.528;4.442;2023-11-18T06:08:39;6.20;88.40
82243;DHT22;71844;51.528;4.442;2023-11-18T06:11:12;6.20;88.40
82243;DHT22;71844;51.528;4.442;2023-11-18T06:13:47;6.20;88.40
82243;DHT22;71844;51.528;4.442;2023-11-18T06:16:19;6.20;88.40
82243;DHT22;71844;51.528;4.442;2023-11-18T06:18:51;6.20;88.40
82243;DHT22;71844;51.528;4.442;2023-11-18T06:21:19;6.20;88.40
82243;DHT22;71844;51.528;4.442;2023-11-18T06:23:47;6.30;88.50
82243;DHT22;71844;51.528;4.442;2023-11-18T06:26:15;6.20;88.40
82243;DHT22;71844;51.528;4.442;2023-11-18T06:28:44;6.20;88.40
82243;DHT22;71844;51.528;4.442;2023-11-18T06:31:11;6.30;88.40
82243;DHT22;71844;51.528;4.442;2023-11-18T06:33:43;6.30;88.40
82243;DHT22;71844;51.528;4.442;2023-11-18T06:38:41;6.30;88.40
82243;DHT22;71844;51.528;4.442;2023-11-18T06:41:08;6.30;88.40
82243;DHT22;71844;51.528;4.442;2023-11-18T06:43:38;6.30;88.40
82243;DHT22;71844;51.528;4.442;2023-11-18T06:46:31;6.30;88.40
82243;DHT22;71844;51.528;4.442;2023-11-18T06:49:02;6.30;88.40
82243;DHT22;71844;51.528;4.442;2023-11-18T06:51:33;6.30;88.40
82243;DHT22;71844;51.528;4.442;2023-11-18T06:54:04;6.30;88.40
82243;DHT22;71844;51.528;4.442;2023-11-18T06:56:41;6.30;88.40
82243;DHT22;71844;51.528;4.442;2023-11-18T06:59:12;6.30;88.40
82243;DHT22;71844;51.528;4.442;2023-11-18T07:01:41;6.30;88.40
82243;DHT22;71844;51.528;4.442;2023-11-18T07:04:09;6.30;88.40
82243;DHT22;71844;51.528;4.442;2023-11-18T07:06:37;6.30;88.30
82243;DHT22;71844;51.528;4.442;2023-11-18T07:09:08;6.40;88.40
82243;DHT22;71844;51.528;4.442;2023-11-18T07:11:45;6.30;88.30
82243;DHT22;71844;51.528;4.442;2023-11-18T07:14:14;6.40;88.30
82243;DHT22;71844;51.528;4.442;2023-11-18T07:16:44;6.40;88.30
82243;DHT22;71844;51.528;4.442;2023-11-18T07:19:12;6.40;88.40
82243;DHT22;71844;51.528;4.442;2023-11-18T07:21:47;6.40;88.40
82243;DHT22;71844;51.528;4.442;2023-11-18T07:24:14;6.40;88.30
82243;DHT22;71844;51.528;4.442;2023-11-18T07:26:41;6.40;88.30
82243;DHT22;71844;51.528;4.442;2023-11-18T07:29:08;6.40;88.30
82243;DHT22;71844;51.528;4.442;2023-11-18T07:31:35;6.40;88.30
82243;DHT22;71844;51.528;4.442;2023-11-18T07:34:04;6.40;88.20
82243;DHT22;71844;51.528;4.442;2023-11-18T07:36:32;6.50;88.20
82243;DHT22;71844;51.528;4.442;2023-11-18T07:39:00;6.50;88.20
82243;DHT22;71844;51.528;4.442;2023-11-18T07:41:28;6.40;88.20
82243;DHT22;71844;51.528;4.442;2023-11-18T07:43:59;6.50;88.30
82243;DHT22;71844;51.528;4.442;2023-11-18T07:46:28;6.50;88.30
82243;DHT22;71844;51.528;4.442;2023-11-18T07:48:58;6.50;88.30
82243;DHT22;71844;51.528;4.442;2023-11-18T07:51:25;6.50;88.30
82243;DHT22;71844;51.528;4.442;2023-11-18T07:53:51;6.50;88.30
82243;DHT22;71844;51.528;4.442;2023-11-18T07:56:20;6.50;88.40
82243;DHT22;71844;51.528;4.442;2023-11-18T07:58:49;6.50;88.40
82243;DHT22;71844;51.528;4.442;2023-11-18T08:01:19;6.50;88.40
82243;DHT22;71844;51.528;4.442;2023-11-18T08:03:48;6.50;88.40
82243;DHT22;71844;51.528;4.442;2023-11-18T08:06:15;6.50;88.50
82243;DHT22;71844;51.528;4.442;2023-11-18T08:08:42;6.50;88.50
82243;DHT22;71844;51.528;4.442;2023-11-18T08:11:11;6.50;88.60
82243;DHT22;71844;51.528;4.442;2023-11-18T08:13:41;6.50;88.50
82243;DHT22;71844;51.528;4.442;2023-11-18T08:16:08;6.50;88.70
82243;DHT22;71844;51.528;4.442;2023-11-18T08:18:36;6.50;88.60
82243;DHT22;71844;51.528;4.442;2023-11-18T08:21:03;6.50;88.60
82243;DHT22;71844;51.528;4.442;2023-11-18T08:23:34;6.60;88.70
82243;DHT22;71844;51.528;4.442;2023-11-18T08:26:01;6.60;88.80
82243;DHT22;71844;51.528;4.442;2023-11-18T08:28:29;6.60;88.80
82243;DHT22;71844;51.528;4.442;2023-11-18T08:30:55;6.60;88.70
82243;DHT22;71844;51.528;4.442;2023-11-18T08:33:22;6.70;88.90
82243;DHT22;71844;51.528;4.442;2023-11-18T08:35:52;6.60;88.90
82243;DHT22;71844;51.528;4.442;2023-11-18T08:38:19;6.60;89.10
82243;DHT22;71844;51.528;4.442;2023-11-18T08:40:46;6.70;88.90
82243;DHT22;71844;51.528;4.442;2023-11-18T08:43:15;6.70;88.80
82243;DHT22;71844;51.528;4.442;2023-11-18T08:45:43;6.70;88.90
82243;DHT22;71844;51.528;4.442;2023-11-18T08:48:10;6.70;89.00
82243;DHT22;71844;51.528;4.442;2023-11-18T08:50:38;6.70;89.00
82243;DHT22;71844;51.528;4.442;2023-11-18T08:53:08;6.70;89.10
82243;DHT22;71844;51.528;4.442;2023-11-18T08:55:38;6.70;89.10
82243;DHT22;71844;51.528;4.442;2023-11-18T08:58:12;6.70;89.20
82243;DHT22;71844;51.528;4.442;2023-11-18T09:00:54;6.70;89.40
82243;DHT22;71844;51.528;4.442;2023-11-18T09:03:25;6.80;89.20
82243;DHT22;71844;51.528;4.442;2023-11-18T09:06:04;6.80;89.30
82243;DHT22;71844;51.528;4.442;2023-11-18T09:08:36;6.80;89.50
82243;DHT22;71844;51.528;4.442;2023-11-18T09:11:07;6.80;89.50
82243;DHT22;71844;51.528;4.442;2023-11-18T09:13:35;6.80;89.60
82243;DHT22;71844;51.528;4.442;2023-11-18T09:16:06;6.80;89.70
82243;DHT22;71844;51.528;4.442;2023-11-18T09:18:41;6.90;89.60
82243;DHT22;71844;51.528;4.442;2023-11-18T09:21:10;6.90;89.80
82243;DHT22;71844;51.528;4.442;2023-11-18T09:23:46;6.90;90.00
82243;DHT22;71844;51.528;4.442;2023-11-18T09:26:14;6.90;90.00
82243;DHT22;71844;51.528;4.442;2023-11-18T09:28:43;7.00;90.20
82243;DHT22;71844;51.528;4.442;2023-11-18T09:31:13;7.00;90.30
82243;DHT22;71844;51.528;4.442;2023-11-18T09:33:41;7.00;90.20
82243;DHT22;71844;51.528;4.442;2023-11-18T09:36:13;7.00;90.20
82243;DHT22;71844;51.528;4.442;2023-11-18T09:38:41;7.10;90.40
82243;DHT22;71844;51.528;4.442;2023-11-18T09:41:09;7.10;90.40
82243;DHT22;71844;51.528;4.442;2023-11-18T09:43:41;7.10;90.50
82243;DHT22;71844;51.528;4.442;2023-11-18T09:46:11;7.10;90.50
82243;DHT22;71844;51.528;4.442;2023-11-18T09:48:48;7.20;90.70
82243;DHT22;71844;51.528;4.442;2023-11-18T09:51:37;7.20;90.60
82243;DHT22;71844;51.528;4.442;2023-11-18T09:54:08;7.30;90.60
82243;DHT22;71844;51.528;4.442;2023-11-18T09:57:00;7.30;90.80
82243;DHT22;71844;51.528;4.442;2023-11-18T09:59:43;7.30;90.60
82243;DHT22;71844;51.528;4.442;2023-11-18T10:02:13;7.40;90.70
82243;DHT22;71844;51.528;4.442;2023-11-18T10:04:41;7.40;90.70
82243;DHT22;71844;51.528;4.442;2023-11-18T10:07:09;7.40;90.90
82243;DHT22;71844;51.528;4.442;2023-11-18T10:09:38;7.40;91.00
82243;DHT22;71844;51.528;4.442;2023-11-18T10:12:07;7.50;90.80
82243;DHT22;71844;51.528;4.442;2023-11-18T10:14:35;7.50;90.80
82243;DHT22;71844;51.528;4.442;2023-11-18T10:17:06;7.50;91.20
82243;DHT22;71844;51.528;4.442;2023-11-18T10:19:55;7.50;90.80
82243;DHT22;71844;51.528;4.442;2023-11-18T10:22:24;7.50;91.00
82243;DHT22;71844;51.528;4.442;2023-11-18T10:24:54;7.50;90.90
82243;DHT22;71844;51.528;4.442;2023-11-18T10:27:26;7.60;91.20
82243;DHT22;71844;51.528;4.442;2023-11-18T10:29:58;7.60;91.20
82243;DHT22;71844;51.528;4.442;2023-11-18T10:32:25;7.60;91.30
82243;DHT22;71844;51.528;4.442;2023-11-18T10:34:58;7.60;91.30
82243;DHT22;71844;51.528;4.442;2023-11-18T10:37:25;7.60;91.20
82243;DHT22;71844;51.528;4.442;2023-11-18T10:39:54;7.60;91.20
82243;DHT22;71844;51.528;4.442;2023-11-18T10:42:21;7.70;91.20
82243;DHT22;71844;51.528;4.442;2023-11-18T10:44:58;7.70;91.30
82243;DHT22;71844;51.528;4.442;2023-11-18T10:47:26;7.70;91.30
82243;DHT22;71844;51.528;4.442;2023-11-18T10:49:56;7.70;91.40
82243;DHT22;71844;51.528;4.442;2023-11-18T10:52:24;7.70;91.20
82243;DHT22;71844;51.528;4.442;2023-11-18T10:55:05;7.70;91.40
82243;DHT22;71844;51.528;4.442;2023-11-18T10:57:41;7.70;91.50
82243;DHT22;71844;51.528;4.442;2023-11-18T11:00:13;7.70;91.40
82243;DHT22;71844;51.528;4.442;2023-11-18T11:02:45;7.70;91.60
82243;DHT22;71844;51.528;4.442;2023-11-18T11:05:29;7.70;91.60
82243;DHT22;71844;51.528;4.442;2023-11-18T11:08:01;7.70;91.70
82243;DHT22;71844;51.528;4.442;2023-11-18T11:10:37;7.70;91.70
82243;DHT22;71844;51.528;4.442;2023-11-18T11:13:08;7.70;91.60
82243;DHT22;71844;51.528;4.442;2023-11-18T11:15:43;7.70;91.80
82243;DHT22;71844;51.528;4.442;2023-11-18T11:18:28;7.70;92.00
82243;DHT22;71844;51.528;4.442;2023-11-18T11:21:10;7.80;92.30
82243;DHT22;71844;51.528;4.442;2023-11-18T11:29:24;7.80;92.10
82243;DHT22;71844;51.528;4.442;2023-11-18T11:32:12;7.80;91.90
82243;DHT22;71844;51.528;4.442;2023-11-18T11:34:53;7.80;92.20
82243;DHT22;71844;51.528;4.442;2023-11-18T11:37:25;7.90;92.30
82243;DHT22;71844;51.528;4.442;2023-11-18T11:39:57;7.80;92.10
82243;DHT22;71844;51.528;4.442;2023-11-18T11:42:26;7.90;92.20
82243;DHT22;71844;51.528;4.442;2023-11-18T11:44:54;7.90;92.30
82243;DHT22;71844;51.528;4.442;2023-11-18T11:47:26;7.90;92.30
82243;DHT22;71844;51.528;4.442;2023-11-18T11:50:04;7.90;92.30
82243;DHT22;71844;51.528;4.442;2023-11-18T11:52:53;7.90;92.30
82243;DHT22;71844;51.528;4.442;2023-11-18T11:55:54;7.90;92.30
82243;DHT22;71844;51.528;4.442;2023-11-18T11:58:34;8.00;92.40
82243;DHT22;71844;51.528;4.442;2023-11-18T12:01:25;7.90;92.10
82243;DHT22;71844;51.528;4.442;2023-11-18T12:04:05;8.00;92.20
82243;DHT22;71844;51.528;4.442;2023-11-18T12:06:43;8.00;92.20
82243;DHT22;71844;51.528;4.442;2023-11-18T12:09:11;8.00;92.40
82243;DHT22;71844;51.528;4.442;2023-11-18T12:11:51;8.00;92.40
82243;DHT22;71844;51.528;4.442;2023-11-18T12:14:23;8.00;92.30
82243;DHT22;71844;51.528;4.442;2023-11-18T12:16:57;8.00;92.40
82243;DHT22;71844;51.528;4.442;2023-11-18T12:19:33;8.00;92.20
82243;DHT22;71844;51.528;4.442;2023-11-18T12:22:21;8.00;92.20
82243;DHT22;71844;51.528;4.442;2023-11-18T12:33:05;8.10;92.60
82243;DHT22;71844;51.528;4.442;2023-11-18T12:40:54;8.10;92.90
82243;DHT22;71844;51.528;4.442;2023-11-18T12:43:49;8.10;93.00
82243;DHT22;71844;51.528;4.442;2023-11-18T12:49:16;8.10;92.70
82243;DHT22;71844;51.528;4.442;2023-11-18T12:51:43;8.20;92.60
82243;DHT22;71844;51.528;4.442;2023-11-18T12:54:19;8.20;92.50
82243;DHT22;71844;51.528;4.442;2023-11-18T12:56:51;8.20;92.70
82243;DHT22;71844;51.528;4.442;2023-11-18T12:59:23;8.20;92.70
82243;DHT22;71844;51.528;4.442;2023-11-18T13:01:51;8.20;92.90
82243;DHT22;71844;51.528;4.442;2023-11-18T13:04:21;8.20;92.80
82243;DHT22;71844;51.528;4.442;2023-11-18T13:06:51;8.20;92.60
82243;DHT22;71844;51.528;4.442;2023-11-18T13:09:22;8.20;92.50
82243;DHT22;71844;51.528;4.442;2023-11-18T13:11:57;8.20;92.60
82243;DHT22;71844;51.528;4.442;2023-11-18T13:14:33;8.30;92.60
82243;DHT22;71844;51.528;4.442;2023-11-18T13:17:05;8.30;92.70
82243;DHT22;71844;51.528;4.442;2023-11-18T13:19:35;8.30;92.70
82243;DHT22;71844;51.528;4.442;2023-11-18T13:22:03;8.30;92.90
82243;DHT22;71844;51.528;4.442;2023-11-18T13:24:30;8.30;93.10
82243;DHT22;71844;51.528;4.442;2023-11-18T13:26:58;8.30;93.00
82243;DHT22;71844;51.528;4.442;2023-11-18T13:29:30;8.30;92.90
82243;DHT22;71844;51.528;4.442;2023-11-18T13:31:59;8.30;92.90
82243;DHT22;71844;51.528;4.442;2023-11-18T13:34:31;8.30;93.10
82243;DHT22;71844;51.528;4.442;2023-11-18T13:37:06;8.30;93.10
82243;DHT22;71844;51.528;4.442;2023-11-18T13:39:37;8.30;93.20
82243;DHT22;71844;51.528;4.442;2023-11-18T13:42:24;8.40;93.10
82243;DHT22;71844;51.528;4.442;2023-11-18T13:45:04;8.40;93.10
82243;DHT22;71844;51.528;4.442;2023-11-18T13:47:38;8.40;93.20
82243;DHT22;71844;51.528;4.442;2023-11-18T13:50:09;8.40;93.20
82243;DHT22;71844;51.528;4.442;2023-11-18T13:52:37;8.40;93.20
82243;DHT22;71844;51.528;4.442;2023-11-18T13:55:07;8.40;93.20
82243;DHT22;71844;51.528;4.442;2023-11-18T13:57:35;8.50;93.20
82243;DHT22;71844;51.528;4.442;2023-11-18T14:00:03;8.50;93.20
82243;DHT22;71844;51.528;4.442;2023-11-18T14:02:33;8.50;93.10
82243;DHT22;71844;51.528;4.442;2023-11-18T14:05:03;8.50;93.00
82243;DHT22;71844;51.528;4.442;2023-11-18T14:07:37;8.50;93.10
82243;DHT22;71844;51.528;4.442;2023-11-18T14:10:05;8.60;93.00
82243;DHT22;71844;51.528;4.442;2023-11-18T14:12:34;8.60;93.20
82243;DHT22;71844;51.528;4.442;2023-11-18T14:15:01;8.60;93.50
82243;DHT22;71844;51.528;4.442;2023-11-18T14:17:30;8.60;93.50
82243;DHT22;71844;51.528;4.442;2023-11-18T14:19:57;8.60;93.30
82243;DHT22;71844;51.528;4.442;2023-11-18T14:22:24;8.60;93.10
82243;DHT22;71844;51.528;4.442;2023-11-18T14:24:51;8.60;93.40
82243;DHT22;71844;51.528;4.442;2023-11-18T14:27:20;8.70;93.30
82243;DHT22;71844;51.528;4.442;2023-11-18T14:29:47;8.70;93.20
82243;DHT22;71844;51.528;4.442;2023-11-18T14:32:14;8.70;93.20
82243;DHT22;71844;51.528;4.442;2023-11-18T14:34:41;8.70;93.30
82243;DHT22;71844;51.528;4.442;2023-11-18T14:37:08;8.70;93.30
82243;DHT22;71844;51.528;4.442;2023-11-18T14:39:35;8.70;93.30
82243;DHT22;71844;51.528;4.442;2023-11-18T14:42:04;8.80;93.30
82243;DHT22;71844;51.528;4.442;2023-11-18T14:44:31;8.80;93.40
82243;DHT22;71844;51.528;4.442;2023-11-18T14:46:58;8.80;93.40
82243;DHT22;71844;51.528;4.442;2023-11-18T14:49:27;8.80;93.60
82243;DHT22;71844;51.528;4.442;2023-11-18T14:51:54;8.80;93.60
82243;DHT22;71844;51.528;4.442;2023-11-18T14:54:21;8.80;93.60
82243;DHT22;71844;51.528;4.442;2023-11-18T14:56:49;8.90;93.60
82243;DHT22;71844;51.528;4.442;2023-11-18T14:59:16;8.90;93.50
82243;DHT22;71844;51.528;4.442;2023-11-18T15:01:43;8.90;93.60
82243;DHT22;71844;51.528;4.442;2023-11-18T15:04:10;8.90;93.60
82243;DHT22;71844;51.528;4.442;2023-11-18T15:06:39;8.90;93.60
82243;DHT22;71844;51.528;4.442;2023-11-18T15:09:07;9.00;93.60
82243;DHT22;71844;51.528;4.442;2023-11-18T15:11:37;9.00;93.70
82243;DHT22;71844;51.528;4.442;2023-11-18T15:14:04;9.00;93.80
82243;DHT22;71844;51.528;4.442;2023-11-18T15:16:34;9.00;93.90
82243;DHT22;71844;51.528;4.442;2023-11-18T15:19:02;9.10;94.00
82243;DHT22;71844;51.528;4.442;2023-11-18T15:21:29;9.10;94.00
82243;DHT22;71844;51.528;4.442;2023-11-18T15:23:59;9.10;94.10
82243;DHT22;71844;51.528;4.442;2023-11-18T15:26:28;9.10;94.00
82243;DHT22;71844;51.528;4.442;2023-11-18T15:28:58;9.20;94.00
82243;DHT22;71844;51.528;4.442;2023-11-18T15:31:26;9.20;93.90
82243;DHT22;71844;51.528;4.442;2023-11-18T15:33:56;9.20;94.00
82243;DHT22;71844;51.528;4.442;2023-11-18T15:36:23;9.20;94.00
82243;DHT22;71844;51.528;4.442;2023-11-18T15:38:52;9.20;94.20
82243;DHT22;71844;51.528;4.442;2023-11-18T15:41:18;9.20;94.20
82243;DHT22;71844;51.528;4.442;2023-11-18T15:43:46;9.30;94.30
82243;DHT22;71844;51.528;4.442;2023-11-18T15:46:15;9.30;94.20
82243;DHT22;71844;51.528;4.442;2023-11-18T15:48:42;9.30;94.20
82243;DHT22;71844;51.528;4.442;2023-11-18T15:51:09;9.30;94.20
82243;DHT22;71844;51.528;4.442;2023-11-18T15:53:39;9.40;94.20
82243;DHT22;71844;51.528;4.442;2023-11-18T15:56:07;9.40;94.30
82243;DHT22;71844;51.528;4.442;2023-11-18T15:58:35;9.40;94.40
82243;DHT22;71844;51.528;4.442;2023-11-18T16:01:02;9.40;94.20
82243;DHT22;71844;51.528;4.442;2023-11-18T16:03:30;9.40;94.50
82243;DHT22;71844;51.528;4.442;2023-11-18T16:05:57;9.50;94.30
82243;DHT22;71844;51.528;4.442;2023-11-18T16:08:24;9.50;94.40
82243;DHT22;71844;51.528;4.442;2023-11-18T16:10:51;9.50;94.30
82243;DHT22;71844;51.528;4.442;2023-11-18T16:13:20;9.60;94.50
82243;DHT22;71844;51.528;4.442;2023-11-18T16:15:48;9.60;94.50
82243;DHT22;71844;51.528;4.442;2023-11-18T16:18:15;9.60;95.00
82243;DHT22;71844;51.528;4.442;2023-11-18T16:20:42;9.70;94.90
82243;DHT22;71844;51.528;4.442;2023-11-18T16:23:10;9.70;94.90
82243;DHT22;71844;51.528;4.442;2023-11-18T16:25:37;9.70;94.80
82243;DHT22;71844;51.528;4.442;2023-11-18T16:28:04;9.80;94.90
82243;DHT22;71844;51.528;4.442;2023-11-18T16:30:34;9.80;95.10
82243;DHT22;71844;51.528;4.442;2023-11-18T16:33:01;9.90;95.10